createdAt,value
2023-02-09T00:01:46.764Z,248.45
2023-02-09T00:03:43.457Z,248.45
2023-02-09T00:05:43.677Z,248.45
2023-02-09T00:07:45.702Z,248.45
2023-02-09T00:09:43.230Z,248.45
2023-02-09T00:11:43.543Z,248.45
2023-02-09T00:13:43.572Z,248.45
2023-02-09T00:15:43.234Z,248.45
2023-02-09T00:17:44.030Z,248.45
2023-02-09T00:19:44.753Z,248.45
2023-02-09T00:21:44.152Z,248.45
2023-02-09T00:23:43.078Z,248.45
2023-02-09T00:25:43.876Z,248.45
2023-02-09T00:27:43.116Z,248.45
2023-02-09T00:29:43.129Z,248.45
2023-02-09T00:31:44.622Z,248.45
2023-02-09T00:33:43.780Z,248.45
2023-02-09T00:35:43.116Z,248.45
2023-02-09T00:37:43.407Z,248.45
2023-02-09T00:39:43.016Z,248.45
2023-02-09T00:41:43.883Z,248.45
2023-02-09T00:43:43.249Z,248.45
2023-02-09T00:45:43.774Z,248.45
2023-02-09T00:47:43.140Z,248.45
2023-02-09T00:49:43.691Z,248.45
2023-02-09T00:51:43.561Z,248.45
2023-02-09T00:53:43.620Z,248.45
2023-02-09T00:55:42.856Z,2280.33
2023-02-09T00:57:43.563Z,2280.33
2023-02-09T00:59:43.076Z,2280.33
2023-02-09T01:01:46.915Z,2280.33
2023-02-09T01:03:43.558Z,2280.33
2023-02-09T01:05:43.722Z,2280.33
2023-02-09T01:07:42.758Z,2280.33
2023-02-09T01:09:43.066Z,2280.33
2023-02-09T01:11:43.968Z,2280.33
2023-02-09T01:13:43.166Z,2280.33
2023-02-09T01:15:43.715Z,2280.33
2023-02-09T01:17:43.420Z,2280.33
2023-02-09T01:19:43.545Z,2280.33
2023-02-09T01:21:43.769Z,2280.33
2023-02-09T01:23:43.528Z,2280.33
2023-02-09T01:25:42.979Z,2280.33
2023-02-09T01:27:43.840Z,2280.33
2023-02-09T01:29:43.466Z,2280.33
2023-02-09T01:31:45.482Z,2280.33
2023-02-09T01:33:43.387Z,2280.33
2023-02-09T01:35:43.857Z,2280.33
2023-02-09T01:37:43.134Z,2280.33
2023-02-09T01:39:42.552Z,2280.33
2023-02-09T01:41:43.181Z,2280.33
2023-02-09T01:43:42.789Z,2280.33
2023-02-09T01:45:43.365Z,2280.33
2023-02-09T01:47:42.928Z,2280.33
2023-02-09T01:49:43.321Z,2280.33
2023-02-09T01:51:43.577Z,2280.33
2023-02-09T01:53:43.146Z,2280.33
2023-02-09T01:55:43.451Z,2280.33
2023-02-09T01:57:43.142Z,2280.33
2023-02-09T01:59:43.531Z,2280.33
2023-02-09T02:01:48.467Z,5038.29
2023-02-09T02:03:43.187Z,5038.29
2023-02-09T02:05:43.482Z,5038.29
2023-02-09T02:07:42.884Z,5.52
2023-02-09T02:09:43.129Z,5.52
2023-02-09T02:11:44.030Z,5.52
2023-02-09T02:13:43.232Z,5.52
2023-02-09T02:15:44.009Z,5.52
2023-02-09T02:17:43.030Z,5.52
2023-02-09T02:19:43.326Z,5.52
2023-02-09T02:21:43.356Z,5.52
2023-02-09T02:23:43.267Z,5.52
2023-02-09T02:25:43.190Z,5.52
2023-02-09T02:27:43.507Z,5.52
2023-02-09T02:29:43.282Z,5.52
2023-02-09T02:31:44.924Z,5.52
2023-02-09T02:33:43.153Z,5.52
2023-02-09T02:35:43.690Z,5.52
2023-02-09T02:37:42.886Z,5.52
2023-02-09T02:39:43.417Z,5.52
2023-02-09T02:41:43.579Z,5.52
2023-02-09T02:43:43.403Z,5.52
2023-02-09T02:45:42.808Z,5.52
2023-02-09T02:47:43.553Z,5.52
2023-02-09T02:49:42.865Z,5.52
2023-02-09T02:51:44.433Z,5.52
2023-02-09T02:53:42.940Z,5.52
2023-02-09T02:55:43.405Z,5.52
2023-02-09T02:57:42.763Z,5.52
2023-02-09T02:59:43.444Z,5.52
2023-02-09T03:01:46.671Z,5.52
2023-02-09T03:03:43.249Z,5.52
2023-02-09T03:05:43.321Z,5.52
2023-02-09T03:07:43.193Z,5.52
2023-02-09T03:09:43.513Z,5.52
2023-02-09T03:11:45.051Z,5.52
2023-02-09T03:13:43.825Z,5.52
2023-02-09T03:15:43.311Z,5.52
2023-02-09T03:17:42.962Z,5.52
2023-02-09T03:19:43.203Z,5.52
2023-02-09T03:21:43.721Z,5.52
2023-02-09T03:23:43.280Z,5.52
2023-02-09T03:25:43.575Z,5.52
2023-02-09T03:27:43.112Z,5.52
2023-02-09T03:29:43.888Z,5.52
2023-02-09T03:31:44.469Z,5.52
2023-02-09T03:33:44.585Z,5.52
2023-02-09T03:35:43.049Z,5.52
2023-02-09T03:37:43.454Z,5.52
2023-02-09T03:39:42.686Z,5.52
2023-02-09T03:41:43.911Z,5.52
2023-02-09T03:43:42.918Z,5.52
2023-02-09T03:45:43.158Z,5.52
2023-02-09T03:47:43.319Z,5.52
2023-02-09T03:49:43.748Z,5.52
2023-02-09T03:51:43.604Z,5.52
2023-02-09T03:53:42.641Z,5.52
2023-02-09T03:55:43.272Z,5.52
2023-02-09T03:57:42.981Z,5.52
2023-02-09T03:59:43.171Z,5.52
2023-02-09T04:01:47.944Z,5.52
2023-02-09T04:03:43.602Z,5.52
2023-02-09T04:05:43.473Z,5.52
2023-02-09T04:07:43.121Z,5.52
2023-02-09T04:09:42.709Z,5.52
2023-02-09T04:11:46.046Z,5.52
2023-02-09T04:13:42.948Z,5.52
2023-02-09T04:15:43.261Z,5.52
2023-02-09T04:17:43.132Z,5.52
2023-02-09T04:19:43.676Z,5.52
2023-02-09T04:21:43.593Z,5.52
2023-02-09T04:23:43.932Z,5.52
2023-02-09T04:25:43.054Z,5.52
2023-02-09T04:27:43.643Z,5.52
2023-02-09T04:29:43.250Z,5.52
2023-02-09T04:31:44.876Z,5.52
2023-02-09T04:33:43.355Z,5.52
2023-02-09T04:35:43.691Z,5.52
2023-02-09T04:37:43.060Z,5.52
2023-02-09T04:39:42.566Z,5.52
2023-02-09T04:41:43.540Z,5.52
2023-02-09T04:43:42.914Z,5.52
2023-02-09T04:45:43.332Z,5.52
2023-02-09T04:47:42.914Z,5.52
2023-02-09T04:49:43.421Z,5.52
2023-02-09T04:51:43.320Z,5.52
2023-02-09T04:53:43.303Z,5.52
2023-02-09T04:55:42.890Z,5.52
2023-02-09T04:57:46.606Z,5.52
2023-02-09T04:59:42.887Z,5.52
2023-02-09T05:01:46.592Z,5.52
2023-02-09T05:03:46.928Z,5.52
2023-02-09T05:05:43.094Z,5.52
2023-02-09T05:07:43.491Z,5.52
2023-02-09T05:09:42.816Z,5.52
2023-02-09T05:11:44.179Z,5.52
2023-02-09T05:13:43.173Z,5.52
2023-02-09T05:15:43.444Z,5.52
2023-02-09T05:17:46.092Z,5.52
2023-02-09T05:19:43.605Z,5.52
2023-02-09T05:21:43.744Z,5.52
2023-02-09T05:23:46.320Z,5.52
2023-02-09T05:25:42.879Z,5.52
2023-02-09T05:27:43.584Z,5.52
2023-02-09T05:29:44.859Z,5.52
2023-02-09T05:31:44.644Z,5.52
2023-02-09T05:33:42.928Z,5.52
2023-02-09T05:35:43.435Z,5.52
2023-02-09T05:37:42.940Z,5.52
2023-02-09T05:39:43.732Z,5.52
2023-02-09T05:41:44.782Z,5.52
2023-02-09T05:43:42.802Z,5.52
2023-02-09T05:45:43.392Z,5.52
2023-02-09T05:47:43.136Z,5.52
2023-02-09T05:49:43.469Z,5.52
2023-02-09T05:51:43.549Z,5.52
2023-02-09T05:53:43.095Z,5.52
2023-02-09T05:55:43.295Z,5.52
2023-02-09T05:57:43.729Z,5.52
2023-02-09T05:59:42.832Z,5.52
2023-02-09T06:01:46.729Z,5.52
2023-02-09T06:03:44.494Z,5.52
2023-02-09T06:05:43.434Z,5.52
2023-02-09T06:07:45.952Z,5.52
2023-02-09T06:09:43.442Z,5.52
2023-02-09T06:11:44.425Z,5.52
2023-02-09T06:13:43.720Z,5.52
2023-02-09T06:15:43.651Z,5.52
2023-02-09T06:17:43.513Z,5.52
2023-02-09T06:19:43.221Z,5.52
2023-02-09T06:21:44.300Z,5.52
2023-02-09T06:23:46.267Z,5.52
2023-02-09T06:25:44.000Z,5.52
2023-02-09T06:27:43.161Z,5.52
2023-02-09T06:29:42.856Z,5.52
2023-02-09T06:31:45.094Z,5.52
2023-02-09T06:33:43.075Z,5.52
2023-02-09T06:35:43.394Z,5.52
2023-02-09T06:37:42.959Z,5.52
2023-02-09T06:39:43.342Z,5.52
2023-02-09T06:41:43.683Z,5.52
2023-02-09T06:43:42.782Z,5.52
2023-02-09T06:45:43.317Z,5.52
2023-02-09T06:47:43.348Z,5.52
2023-02-09T06:49:45.246Z,5.52
2023-02-09T06:51:44.461Z,5.52
2023-02-09T06:53:43.321Z,5.52
2023-02-09T06:55:42.907Z,5.52
2023-02-09T06:57:43.412Z,5.52
2023-02-09T06:59:42.985Z,5.52
2023-02-09T07:01:48.295Z,5.52
2023-02-09T07:03:43.546Z,5.52
2023-02-09T07:05:43.787Z,5.52
2023-02-09T07:07:43.040Z,5.52
2023-02-09T07:09:43.253Z,5.52
2023-02-09T07:11:43.529Z,5.52
2023-02-09T07:13:43.704Z,5.52
2023-02-09T07:15:43.127Z,5.52
2023-02-09T07:17:43.017Z,5.52
2023-02-09T07:19:45.471Z,5.52
2023-02-09T07:21:43.450Z,5.52
2023-02-09T07:23:43.169Z,5.52
2023-02-09T07:25:43.512Z,5.52
2023-02-09T07:27:43.435Z,5.52
2023-02-09T07:29:45.729Z,5.52
2023-02-09T07:31:45.700Z,5.52
2023-02-09T07:33:43.367Z,5.52
2023-02-09T07:35:43.734Z,5.52
2023-02-09T07:37:45.048Z,5.52
2023-02-09T07:39:44.431Z,5.52
2023-02-09T07:41:43.920Z,5.52
2023-02-09T07:43:43.259Z,5.52
2023-02-09T07:45:44.349Z,5.52
2023-02-09T07:47:43.837Z,5.52
2023-02-09T07:49:46.351Z,5.52
2023-02-09T07:51:45.664Z,5.52
2023-02-09T07:53:42.917Z,5.52
2023-02-09T07:55:43.926Z,5.52
2023-02-09T07:57:42.926Z,5.52
2023-02-09T07:59:43.152Z,5.52
2023-02-09T08:01:45.285Z,5.52
2023-02-09T08:03:43.163Z,5.52
2023-02-09T08:05:44.084Z,5.52
2023-02-09T08:07:55.155Z,5.52
2023-02-09T08:09:43.484Z,5.52
2023-02-09T08:11:44.717Z,5.52
2023-02-09T08:13:44.431Z,5.52
2023-02-09T08:15:43.250Z,5.52
2023-02-09T08:17:43.328Z,5.52
2023-02-09T08:19:43.534Z,5.52
2023-02-09T08:21:42.683Z,5.52
2023-02-09T08:23:43.569Z,5.52
2023-02-09T08:25:42.970Z,5.52
2023-02-09T08:27:43.477Z,5.52
2023-02-09T08:30:00.931Z,5.52
2023-02-09T08:31:44.096Z,5.52
2023-02-09T08:33:43.095Z,5.52
2023-02-09T08:35:43.765Z,5.52
2023-02-09T08:37:42.768Z,5.52
2023-02-09T08:39:43.321Z,5.52
2023-02-09T08:41:44.100Z,5.52
2023-02-09T08:43:43.244Z,5.52
2023-02-09T08:45:42.911Z,5.52
2023-02-09T08:47:44.609Z,5.52
2023-02-09T08:49:43.572Z,5.52
2023-02-09T08:51:43.480Z,5.52
2023-02-09T08:53:42.825Z,5.52
2023-02-09T08:55:43.748Z,5.52
2023-02-09T08:57:55.082Z,5.52
2023-02-09T08:59:43.430Z,5.52
2023-02-09T09:01:46.916Z,5.52
2023-02-09T09:03:43.431Z,5.52
2023-02-09T09:05:43.607Z,5.52
2023-02-09T09:07:43.297Z,5.52
2023-02-09T09:09:43.004Z,5.52
2023-02-09T09:11:43.434Z,5.52
2023-02-09T09:13:42.752Z,5.52
2023-02-09T09:15:43.890Z,5.52
2023-02-09T09:17:46.865Z,5.52
2023-02-09T09:19:43.361Z,5.52
2023-02-09T09:21:45.959Z,5.52
2023-02-09T09:23:44.223Z,5.52
2023-02-09T09:25:43.594Z,5.52
2023-02-09T09:27:42.606Z,5.52
2023-02-09T09:29:43.477Z,5.52
2023-02-09T09:31:43.882Z,5.52
2023-02-09T09:33:44.593Z,5.52
2023-02-09T09:35:42.871Z,5.52
2023-02-09T09:37:43.574Z,5.52
2023-02-09T09:39:43.124Z,5.52
2023-02-09T09:41:43.148Z,5.52
2023-02-09T09:43:43.276Z,5.52
2023-02-09T09:45:44.435Z,5.52
2023-02-09T09:47:43.869Z,5.52
2023-02-09T09:49:42.861Z,5.52
2023-02-09T09:51:45.316Z,47.85
2023-02-09T09:53:43.182Z,47.85
2023-02-09T09:55:43.858Z,47.85
2023-02-09T09:57:45.889Z,13.03
2023-02-09T09:59:43.632Z,13.03
2023-02-09T10:01:50.897Z,13.03
2023-02-09T10:03:44.842Z,13.03
2023-02-09T10:05:43.822Z,13.03
2023-02-09T10:07:46.366Z,13.03
2023-02-09T10:09:43.477Z,13.03
2023-02-09T10:11:44.059Z,13.03
2023-02-09T10:13:43.046Z,13.03
2023-02-09T10:15:43.969Z,13.03
2023-02-09T10:17:43.567Z,13.03
2023-02-09T10:19:43.447Z,875.22
2023-02-09T10:21:43.091Z,875.22
2023-02-09T10:23:42.728Z,781.6
2023-02-09T10:25:43.325Z,2.06
2023-02-09T10:27:42.646Z,2.06
2023-02-09T10:29:43.646Z,2.06
2023-02-09T10:31:44.555Z,1.86
2023-02-09T10:33:43.394Z,1.86
2023-02-09T10:35:42.632Z,1.86
2023-02-09T10:37:43.400Z,641.97
2023-02-09T10:39:43.656Z,641.97
2023-02-09T10:41:42.982Z,1.67
2023-02-09T10:43:43.542Z,616.36
2023-02-09T10:45:42.971Z,616.36
2023-02-09T10:47:43.921Z,616.36
2023-02-09T10:49:42.878Z,1.58
2023-02-09T10:51:43.815Z,1.58
2023-02-09T10:53:43.294Z,1.58
2023-02-09T10:55:42.780Z,551.59
2023-02-09T10:57:43.237Z,551.59
2023-02-09T10:59:42.860Z,551.59
2023-02-09T11:01:47.517Z,513.63
2023-02-09T11:03:44.223Z,513.63
2023-02-09T11:05:44.212Z,513.63
2023-02-09T11:07:43.362Z,498.97
2023-02-09T11:09:43.121Z,498.97
2023-02-09T11:11:43.173Z,498.97
2023-02-09T11:13:43.848Z,1.31
2023-02-09T11:15:43.067Z,1.31
2023-02-09T11:17:43.923Z,1.31
2023-02-09T11:19:45.230Z,484.61
2023-02-09T11:21:43.716Z,484.61
2023-02-09T11:23:48.250Z,484.61
2023-02-09T11:25:45.668Z,1.29
2023-02-09T11:27:45.982Z,1.29
2023-02-09T11:29:43.310Z,1.29
2023-02-09T11:31:44.665Z,1.27
2023-02-09T11:33:43.704Z,1.27
2023-02-09T11:35:45.250Z,1.27
2023-02-09T11:37:44.190Z,456.74
2023-02-09T11:39:43.447Z,456.74
2023-02-09T11:41:43.322Z,1.23
2023-02-09T11:43:43.428Z,449.95
2023-02-09T11:45:43.191Z,449.95
2023-02-09T11:47:43.769Z,449.95
2023-02-09T11:49:42.806Z,449.95
2023-02-09T11:51:44.454Z,449.95
2023-02-09T11:53:43.272Z,449.95
2023-02-09T11:55:43.565Z,449.95
2023-02-09T11:57:42.958Z,449.95
2023-02-09T11:59:44.205Z,449.95
2023-02-09T12:02:11.693Z,1.15
2023-02-09T12:03:43.461Z,1.15
2023-02-09T12:05:43.594Z,1.15
2023-02-09T12:07:44.602Z,1.15
2023-02-09T12:09:43.697Z,1.15
2023-02-09T12:11:43.401Z,1.15
2023-02-09T12:13:43.895Z,1.15
2023-02-09T12:15:43.203Z,1.15
2023-02-09T12:17:43.919Z,1.15
2023-02-09T12:19:42.785Z,1.15
2023-02-09T12:21:44.093Z,1.15
2023-02-09T12:23:43.041Z,1.15
2023-02-09T12:25:43.416Z,1.15
2023-02-09T12:27:42.868Z,1.15
2023-02-09T12:29:43.885Z,1.15
2023-02-09T12:31:46.246Z,1.15
2023-02-09T12:33:43.525Z,1.15
2023-02-09T12:35:42.707Z,1.15
2023-02-09T12:37:49.572Z,1.15
2023-02-09T12:39:59.928Z,1.15
2023-02-09T12:41:43.455Z,1.15
2023-02-09T12:43:43.737Z,1.15
2023-02-09T12:45:43.352Z,1.15
2023-02-09T12:47:43.819Z,1.15
2023-02-09T12:49:42.794Z,1.15
2023-02-09T12:51:43.734Z,1.15
2023-02-09T12:53:43.077Z,1.15
2023-02-09T12:55:43.756Z,1.15
2023-02-09T12:57:42.808Z,1.15
2023-02-09T12:59:43.494Z,1.15
2023-02-09T13:01:46.960Z,1.15
2023-02-09T13:03:43.314Z,1.15
2023-02-09T13:05:43.580Z,1.15
2023-02-09T13:07:43.393Z,1.15
2023-02-09T13:09:42.794Z,1.15
2023-02-09T13:11:43.311Z,1.15
2023-02-09T13:13:42.966Z,1.15
2023-02-09T13:15:43.681Z,1.15
2023-02-09T13:17:43.958Z,1.15
2023-02-09T13:19:58.524Z,1.15
2023-02-09T13:21:43.807Z,1.15
2023-02-09T13:23:43.370Z,1.15
2023-02-09T13:25:43.495Z,1.15
2023-02-09T13:27:43.244Z,1.15
2023-02-09T13:29:54.654Z,1.15
2023-02-09T13:31:43.359Z,1.15
2023-02-09T13:33:44.387Z,1.15
2023-02-09T13:35:43.351Z,1.15
2023-02-09T13:37:54.665Z,1.15
2023-02-09T13:39:42.961Z,1.15
2023-02-09T13:41:43.806Z,1.15
2023-02-09T13:43:43.469Z,1.15
2023-02-09T13:45:43.550Z,1.15
2023-02-09T13:47:43.412Z,1.15
2023-02-09T13:49:43.360Z,1.15
2023-02-09T13:51:43.707Z,1.15
2023-02-09T13:53:47.500Z,1.15
2023-02-09T13:55:43.646Z,1.15
2023-02-09T13:57:43.100Z,1.15
2023-02-09T13:59:47.354Z,1.15
2023-02-09T14:01:47.224Z,1.15
2023-02-09T14:03:56.921Z,1.15
2023-02-09T14:05:42.921Z,1.15
2023-02-09T14:09:50.049Z,1.15
2023-02-09T14:13:43.213Z,1.15
2023-02-09T14:18:10.842Z,1.15
2023-02-09T14:21:43.530Z,1.15
2023-02-09T14:25:43.675Z,1.15
2023-02-09T14:29:43.866Z,1.15
2023-02-09T14:33:52.498Z,1.15
2023-02-09T14:37:42.650Z,1.15
2023-02-09T14:41:44.984Z,1.15
2023-02-09T14:45:42.833Z,1.15
2023-02-09T14:49:43.102Z,1.15
2023-02-09T14:53:45.386Z,1.15
2023-02-09T14:57:44.049Z,1.15
2023-02-09T15:01:48.661Z,1.15
2023-02-09T15:05:43.474Z,1.15
2023-02-09T15:09:46.853Z,27.77
2023-02-09T15:13:45.104Z,27.77
2023-02-09T15:17:43.396Z,3743.67
2023-02-09T15:21:42.927Z,1823.28
2023-02-09T15:25:43.520Z,1823.28
2023-02-09T15:29:43.184Z,3.26
2023-02-09T15:33:43.286Z,3.26
2023-02-09T15:37:43.521Z,3.26
2023-02-09T15:41:47.197Z,3.26
2023-02-09T15:45:43.528Z,3.26
2023-02-09T15:49:43.433Z,3.26
2023-02-09T15:53:43.688Z,3.26
2023-02-09T15:57:43.493Z,3.26
2023-02-09T16:01:49.103Z,3.26
2023-02-09T16:05:55.567Z,3.26
2023-02-09T16:09:43.580Z,3.26
2023-02-09T16:13:43.679Z,3.26
2023-02-09T16:17:58.838Z,3.26
2023-02-09T16:21:45.283Z,3.26
2023-02-09T16:25:42.830Z,3.26
2023-02-09T16:29:43.158Z,3.26
2023-02-09T16:33:42.764Z,3.26
2023-02-09T16:37:45.146Z,3.26
2023-02-09T16:41:43.184Z,3.26
2023-02-09T16:45:53.977Z,3.26
2023-02-09T16:49:43.253Z,3.26
2023-02-09T16:53:43.893Z,3.26
2023-02-09T16:57:53.737Z,3.26
2023-02-09T17:01:49.309Z,3.26
2023-02-09T17:05:43.656Z,3.26
2023-02-09T17:09:43.388Z,3.26
2023-02-09T17:13:42.666Z,3.26
2023-02-09T17:17:43.454Z,3.26
2023-02-09T17:21:43.039Z,3.26
2023-02-09T17:25:43.496Z,3.26
2023-02-09T17:29:43.953Z,3.26
2023-02-09T17:33:43.756Z,3.26
2023-02-09T17:38:10.038Z,3.26
2023-02-09T17:41:43.659Z,3.26
2023-02-09T17:46:17.642Z,3.26
2023-02-09T17:49:43.328Z,3.26
2023-02-09T17:53:43.062Z,3.26
2023-02-09T17:57:45.844Z,3.26
2023-02-09T18:01:49.723Z,3.26
2023-02-09T18:05:43.445Z,3.26
2023-02-09T18:09:43.107Z,3.26
2023-02-09T18:13:43.855Z,3.26
2023-02-09T18:17:44.258Z,3.26
2023-02-09T18:21:43.810Z,3.26
2023-02-09T18:25:42.781Z,3.26
2023-02-09T18:29:43.408Z,3.26
2023-02-09T18:33:43.222Z,3.26
2023-02-09T18:37:43.494Z,3.26
2023-02-09T18:41:43.587Z,3.26
2023-02-09T18:45:43.504Z,3.26
2023-02-09T18:49:43.549Z,3.26
2023-02-09T18:53:43.636Z,3.26
2023-02-09T18:57:42.690Z,3.26
2023-02-09T19:01:47.307Z,3.26
2023-02-09T19:05:42.961Z,3.26
2023-02-09T19:09:43.506Z,3.26
2023-02-09T19:13:45.784Z,3.26
2023-02-09T19:17:43.091Z,3.26
2023-02-09T19:21:42.935Z,3.26
2023-02-09T19:25:43.045Z,3.26
2023-02-09T19:29:43.808Z,3.26
2023-02-09T19:33:43.444Z,3.26
2023-02-09T19:37:43.748Z,3.26
2023-02-09T19:41:55.692Z,3.26
2023-02-09T19:45:43.254Z,3.26
2023-02-09T19:49:45.560Z,3.26
2023-02-09T19:53:43.602Z,3.26
2023-02-09T19:57:43.652Z,3.26
2023-02-09T20:01:47.969Z,3.26
2023-02-09T20:05:44.257Z,3.26
2023-02-09T20:09:42.621Z,3.26
2023-02-09T20:13:43.436Z,3.26
2023-02-09T20:17:43.579Z,3.26
2023-02-09T20:21:44.067Z,3.26
2023-02-09T20:25:44.098Z,3.26
2023-02-09T20:29:43.395Z,3.26
2023-02-09T20:33:43.267Z,3.26
2023-02-09T20:37:44.623Z,3.26
2023-02-09T20:41:43.929Z,3.26
2023-02-09T20:45:43.587Z,3.26
2023-02-09T20:49:43.550Z,3.26
2023-02-09T20:53:42.640Z,3.26
2023-02-09T20:57:43.642Z,3.26
2023-02-09T21:01:47.775Z,3.26
2023-02-09T21:05:43.203Z,3.26
2023-02-09T21:09:43.311Z,3.26
2023-02-09T21:13:43.282Z,3.26
2023-02-09T21:17:45.952Z,3.26
2023-02-09T21:21:43.623Z,3.26
2023-02-09T21:25:42.793Z,3.26
2023-02-09T21:29:43.332Z,3.26
2023-02-09T21:33:43.356Z,3.26
2023-02-09T21:37:44.990Z,3.26
2023-02-09T21:41:44.157Z,3.26
2023-02-09T21:45:43.110Z,3.26
2023-02-09T21:49:43.041Z,3.26
2023-02-09T21:53:43.085Z,3.26
2023-02-09T21:57:43.120Z,3.26
2023-02-09T22:01:52.021Z,3.26
2023-02-09T22:05:43.365Z,3.26
2023-02-09T22:09:43.227Z,3.26
2023-02-09T22:13:43.603Z,3.26
2023-02-09T22:17:44.040Z,3.26
2023-02-09T22:21:44.284Z,3.26
2023-02-09T22:25:42.823Z,3.26
2023-02-09T22:29:44.414Z,3.26
2023-02-09T22:33:42.886Z,3.26
2023-02-09T22:37:43.232Z,3.26
2023-02-09T22:41:43.192Z,3.26
2023-02-09T22:45:45.989Z,3.26
2023-02-09T22:49:42.728Z,3.26
2023-02-09T22:53:42.630Z,3.26
2023-02-09T22:57:43.111Z,3.26
2023-02-09T23:01:43.667Z,3.26
2023-02-09T23:05:43.202Z,3.26
2023-02-09T23:09:42.995Z,3.26
2023-02-09T23:13:43.003Z,3.26
2023-02-09T23:17:43.435Z,3.26
2023-02-09T23:21:43.367Z,3.26
2023-02-09T23:25:47.082Z,3.26
2023-02-09T23:29:43.473Z,3.26
2023-02-09T23:33:43.375Z,3.26
2023-02-09T23:38:11.564Z,3.26
2023-02-09T23:41:43.556Z,3.26
2023-02-09T23:45:43.350Z,3.26
2023-02-09T23:49:43.426Z,3.26
2023-02-09T23:53:43.384Z,3.26
2023-02-09T23:57:43.460Z,3.26
